Time;durP1;ratioP1;P1;durP2;ratioP2;P2;SDS_P1;SDS_P2;PMS_P1;PMS_P2;Temp;Humidity;BMP_temperature;BMP_pressure;BME280_temperature;BME280_humidity;BME280_pressure;Samples;Min_cycle;Max_cycle;Signal;HPM_P1;HPM_P2
2022/06/26 00:01:15;;;;;;;13.18;8.27;;;19.40;99.90;;;;;;5050488;28;20235;-82
2022/06/26 00:03:43;;;;;;;8.57;7.65;;;19.40;99.90;;;;;;5056889;28;20224;-82
2022/06/26 00:06:10;;;;;;;9.20;8.32;;;19.40;99.90;;;;;;5055958;28;20746;-82
2022/06/26 00:08:37;;;;;;;8.70;7.63;;;19.40;99.90;;;;;;5050449;28;20878;-83
2022/06/26 00:11:03;;;;;;;8.82;8.07;;;19.30;99.90;;;;;;5045242;28;20224;-83
2022/06/26 00:13:30;;;;;;;8.68;7.88;;;19.30;99.90;;;;;;5050185;28;20227;-82
2022/06/26 00:15:57;;;;;;;8.57;7.78;;;19.30;99.90;;;;;;5046047;28;20221;-83
2022/06/26 00:18:23;;;;;;;8.50;7.63;;;19.30;99.90;;;;;;5035152;28;20224;-83
2022/06/26 00:20:51;;;;;;;8.90;8.02;;;19.20;99.90;;;;;;5048425;28;20232;-83
2022/06/26 00:23:18;;;;;;;9.57;8.45;;;19.20;99.90;;;;;;5027720;28;20807;-82
2022/06/26 00:25:45;;;;;;;9.43;8.52;;;19.20;99.90;;;;;;5048913;28;20581;-82
2022/06/26 00:28:12;;;;;;;8.60;7.90;;;19.20;99.90;;;;;;5053476;28;20595;-83
2022/06/26 00:30:38;;;;;;;8.77;8.00;;;19.20;99.90;;;;;;5055539;28;20856;-82
2022/06/26 00:33:05;;;;;;;8.80;8.10;;;19.20;99.90;;;;;;5055603;28;20236;-82
2022/06/26 00:35:32;;;;;;;8.93;8.05;;;19.10;99.90;;;;;;5049238;28;20228;-80
2022/06/26 00:38:00;;;;;;;8.98;8.18;;;19.10;99.90;;;;;;5035956;28;20827;-81
2022/06/26 00:40:27;;;;;;;9.25;8.45;;;19.10;99.90;;;;;;5053168;28;20238;-80
2022/06/26 00:42:54;;;;;;;9.68;8.77;;;19.10;99.90;;;;;;5035920;28;20336;-81
2022/06/26 00:45:20;;;;;;;9.40;8.50;;;19.10;99.90;;;;;;5050377;28;20220;-80
2022/06/26 00:47:47;;;;;;;9.02;8.23;;;19.10;99.90;;;;;;5037057;28;20228;-78
2022/06/26 00:50:14;;;;;;;8.90;8.00;;;19.10;99.90;;;;;;5039452;28;20259;-80
2022/06/26 00:52:42;;;;;;;8.85;7.95;;;19.10;99.90;;;;;;5051172;28;20230;-79
2022/06/26 00:55:11;;;;;;;9.43;7.63;;;19.10;99.90;;;;;;5039563;28;20299;-79
2022/06/26 00:57:38;;;;;;;8.55;7.50;;;19.00;99.90;;;;;;5034313;28;20227;-80
2022/06/26 01:00:06;;;;;;;8.18;7.45;;;19.10;99.90;;;;;;5041202;28;20247;-80
2022/06/26 01:02:33;;;;;;;8.55;7.78;;;19.10;99.90;;;;;;5055732;28;20319;-80
2022/06/26 01:05:00;;;;;;;8.77;7.68;;;19.00;99.90;;;;;;5038707;28;20216;-80
2022/06/26 01:07:27;;;;;;;8.52;7.75;;;19.00;99.90;;;;;;5038965;28;20306;-80
2022/06/26 01:09:53;;;;;;;8.23;7.45;;;19.00;99.90;;;;;;5034720;28;20318;-80
2022/06/26 01:12:22;;;;;;;8.77;8.07;;;19.00;99.90;;;;;;5039826;28;20307;-81
2022/06/26 01:14:49;;;;;;;9.15;8.30;;;19.00;99.90;;;;;;5040665;28;20227;-82
2022/06/26 01:17:16;;;;;;;8.95;8.15;;;19.00;99.90;;;;;;5028123;28;20228;-81
2022/06/26 01:19:44;;;;;;;9.43;8.52;;;18.90;99.90;;;;;;5033341;28;20263;-81
2022/06/26 01:22:11;;;;;;;9.18;8.38;;;18.90;99.90;;;;;;5032899;28;20228;-81
2022/06/26 01:24:39;;;;;;;9.60;8.63;;;18.90;99.90;;;;;;5052217;28;20350;-81
2022/06/26 01:27:06;;;;;;;9.68;8.27;;;18.90;99.90;;;;;;5042872;28;20212;-81
2022/06/26 01:29:33;;;;;;;8.80;8.00;;;18.90;99.90;;;;;;5034181;28;20321;-81
2022/06/26 01:32:00;;;;;;;9.10;8.25;;;18.90;99.90;;;;;;5055369;28;20225;-81
2022/06/26 01:34:26;;;;;;;8.93;8.18;;;18.90;99.90;;;;;;5035001;28;20316;-80
2022/06/26 01:36:59;;;;;;;9.32;8.40;;;18.90;99.90;;;;;;5051284;28;20224;-80
2022/06/26 01:39:25;;;;;;;9.48;8.15;;;18.90;99.90;;;;;;5033530;28;20224;-80
2022/06/26 01:41:53;;;;;;;9.15;8.25;;;18.80;99.90;;;;;;5053265;28;20314;-81
2022/06/26 01:44:20;;;;;;;9.57;8.50;;;18.80;99.90;;;;;;5050140;28;20232;-81
2022/06/26 01:46:47;;;;;;;9.13;8.32;;;18.80;99.90;;;;;;5036007;28;20220;-80
2022/06/26 01:49:14;;;;;;;9.23;8.30;;;18.80;99.90;;;;;;5028917;28;20307;-80
2022/06/26 01:51:41;;;;;;;9.50;8.65;;;18.80;99.90;;;;;;5052401;28;20260;-80
2022/06/26 01:54:08;;;;;;;8.52;7.72;;;18.80;99.90;;;;;;5053295;28;20879;-80
2022/06/26 01:56:36;;;;;;;9.20;8.30;;;18.80;99.90;;;;;;5033487;28;20235;-80
2022/06/26 01:59:04;;;;;;;8.88;8.05;;;18.80;99.90;;;;;;5033340;28;20251;-81
2022/06/26 02:01:42;;;;;;;9.55;8.50;;;18.80;99.90;;;;;;5040298;28;20227;-81
2022/06/26 02:04:12;;;;;;;10.00;8.82;;;18.80;99.90;;;;;;5028842;28;20224;-81
2022/06/26 02:06:41;;;;;;;8.82;7.93;;;18.80;99.90;;;;;;5055579;28;21718;-81
2022/06/26 02:13:35;;;;;;;9.43;8.45;;;18.80;99.90;;;;;;5045415;28;20227;-81
2022/06/26 02:14:41;;;;;;;9.30;8.30;;;18.90;99.90;;;;;;5026335;28;21417;-81
2022/06/26 02:17:08;;;;;;;9.82;8.82;;;18.90;99.90;;;;;;5035007;28;20226;-82
2022/06/26 02:19:35;;;;;;;10.60;8.27;;;18.80;99.90;;;;;;5055956;28;20233;-82
2022/06/26 02:22:02;;;;;;;10.27;9.18;;;18.90;99.90;;;;;;5038449;28;20780;-82
2022/06/26 02:24:28;;;;;;;9.65;8.65;;;18.80;99.90;;;;;;5046747;28;20741;-82
2022/06/26 02:26:55;;;;;;;9.88;8.98;;;18.90;99.90;;;;;;5032188;28;20219;-83
2022/06/26 02:29:22;;;;;;;10.25;8.25;;;18.90;99.90;;;;;;5035468;28;20220;-82
2022/06/26 02:31:50;;;;;;;9.18;8.38;;;18.90;99.90;;;;;;5039499;28;20227;-82
2022/06/26 02:34:16;;;;;;;9.43;8.52;;;18.90;99.90;;;;;;5028659;28;20227;-81
2022/06/26 02:36:44;;;;;;;9.43;8.52;;;18.90;99.90;;;;;;5034242;28;20247;-81
2022/06/26 02:39:11;;;;;;;10.13;9.00;;;18.90;99.90;;;;;;5034670;28;20224;-81
2022/06/26 02:41:37;;;;;;;10.48;9.48;;;19.00;99.90;;;;;;5029266;28;20232;-82
2022/06/26 02:44:04;;;;;;;11.73;9.65;;;19.00;99.90;;;;;;5047152;28;20331;-81
2022/06/26 02:46:32;;;;;;;11.82;9.95;;;19.00;99.90;;;;;;5037534;28;20310;-82
2022/06/26 02:49:00;;;;;;;10.80;9.68;;;19.00;99.90;;;;;;5032220;28;20224;-81
2022/06/26 02:51:27;;;;;;;10.60;9.57;;;19.00;99.90;;;;;;5030362;28;20227;-81
2022/06/26 02:53:54;;;;;;;11.63;10.20;;;19.00;99.90;;;;;;5042878;28;20216;-80
2022/06/26 02:56:21;;;;;;;10.45;9.38;;;19.00;99.90;;;;;;5032047;28;20649;-81
2022/06/26 02:58:48;;;;;;;10.77;9.77;;;19.00;99.90;;;;;;5049058;28;20288;-80
2022/06/26 03:01:16;;;;;;;11.27;10.07;;;19.00;99.90;;;;;;5033102;28;20227;-81
2022/06/26 03:03:43;;;;;;;10.55;9.65;;;19.00;99.90;;;;;;5030442;28;20243;-81
2022/06/26 03:06:12;;;;;;;11.43;10.30;;;19.00;99.90;;;;;;5032059;28;20224;-81
2022/06/26 03:08:40;;;;;;;10.88;9.88;;;19.00;99.90;;;;;;5023826;28;20796;-80
2022/06/26 03:11:06;;;;;;;11.10;10.00;;;19.00;99.90;;;;;;5028267;28;20220;-81
2022/06/26 03:13:33;;;;;;;11.63;10.38;;;19.00;99.90;;;;;;5053183;28;20227;-81
2022/06/26 03:16:00;;;;;;;12.05;10.90;;;19.00;99.90;;;;;;5051007;28;20266;-82
2022/06/26 03:18:27;;;;;;;11.52;10.43;;;18.90;99.90;;;;;;5036256;28;20720;-82
2022/06/26 03:20:55;;;;;;;10.90;9.82;;;18.90;99.90;;;;;;5045073;28;20224;-82
2022/06/26 03:24:00;;;;;;;11.25;10.13;;;18.90;99.90;;;;;;5034006;28;20824;-81
2022/06/26 03:26:10;;;;;;;10.75;9.75;;;18.90;99.90;;;;;;5020770;28;20220;-81
2022/06/26 03:28:37;;;;;;;10.70;9.75;;;18.80;99.90;;;;;;5031756;28;20227;-80
2022/06/26 03:31:05;;;;;;;11.85;10.60;;;18.80;99.90;;;;;;5051632;28;20241;-81
2022/06/26 03:33:31;;;;;;;12.45;10.77;;;18.80;99.90;;;;;;5030458;28;20220;-81
2022/06/26 03:35:58;;;;;;;11.13;10.15;;;18.70;99.90;;;;;;5049492;28;20217;-80
2022/06/26 03:38:27;;;;;;;12.43;11.23;;;18.70;99.90;;;;;;5062914;28;20762;-80
2022/06/26 03:40:54;;;;;;;13.10;10.70;;;18.70;99.90;;;;;;5033520;28;20791;-81
2022/06/26 03:43:21;;;;;;;12.38;11.27;;;18.70;99.90;;;;;;5054077;28;20224;-81
2022/06/26 03:45:49;;;;;;;11.48;10.23;;;18.70;99.90;;;;;;5033264;28;20220;-81
2022/06/26 03:48:16;;;;;;;13.00;11.70;;;18.70;99.90;;;;;;5033519;28;20811;-79
2022/06/26 03:50:42;;;;;;;12.90;11.80;;;18.70;99.90;;;;;;5050695;28;20232;-79
2022/06/26 03:53:09;;;;;;;13.15;11.85;;;18.70;99.90;;;;;;5049340;28;20278;-79
2022/06/26 03:55:37;;;;;;;14.15;12.75;;;18.70;99.90;;;;;;5047945;28;20216;-79
2022/06/26 03:58:04;;;;;;;13.32;11.90;;;18.70;99.90;;;;;;5029077;28;20221;-79
2022/06/26 04:00:33;;;;;;;13.55;12.25;;;18.70;99.90;;;;;;5031458;28;20231;-79
2022/06/26 04:03:03;;;;;;;12.45;11.32;;;18.70;99.90;;;;;;5027690;28;20224;-79
2022/06/26 04:05:31;;;;;;;13.68;12.35;;;18.70;99.90;;;;;;5032108;28;20220;-81
2022/06/26 04:07:59;;;;;;;12.80;11.60;;;18.70;99.90;;;;;;5034995;28;20618;-81
2022/06/26 04:10:39;;;;;;;13.18;11.95;;;18.70;99.90;;;;;;5044914;28;20239;-81
2022/06/26 04:13:15;;;;;;;13.13;11.73;;;18.70;99.90;;;;;;5035087;28;20223;-81
2022/06/26 04:15:43;;;;;;;13.27;12.00;;;18.70;99.90;;;;;;5051864;28;20270;-79
2022/06/26 04:18:10;;;;;;;14.00;12.30;;;18.70;99.90;;;;;;5029526;28;20225;-80
2022/06/26 04:20:38;;;;;;;14.80;12.27;;;18.70;99.90;;;;;;5032659;28;20215;-79
2022/06/26 04:23:07;;;;;;;13.65;12.27;;;18.80;99.90;;;;;;5031088;28;20298;-80
2022/06/26 04:25:36;;;;;;;13.23;11.93;;;18.80;99.90;;;;;;5036952;28;20235;-81
2022/06/26 04:28:05;;;;;;;12.98;11.85;;;18.80;99.90;;;;;;5053034;28;20216;-81
2022/06/26 04:30:35;;;;;;;12.98;11.77;;;18.90;99.90;;;;;;5024453;28;20229;-81
2022/06/26 04:33:02;;;;;;;13.27;12.07;;;18.80;99.90;;;;;;5039020;28;20315;-81
2022/06/26 04:35:31;;;;;;;12.85;11.65;;;18.90;99.90;;;;;;5030848;28;20223;-79
2022/06/26 04:37:59;;;;;;;12.68;11.48;;;18.90;99.90;;;;;;5037213;28;20232;-80
2022/06/26 04:40:26;;;;;;;13.52;12.25;;;19.00;99.90;;;;;;5049653;28;20248;-79
2022/06/26 04:42:55;;;;;;;13.95;12.55;;;19.00;99.90;;;;;;5025625;28;20295;-80
2022/06/26 04:45:23;;;;;;;13.90;12.45;;;19.00;99.90;;;;;;5050800;28;20235;-80
2022/06/26 04:47:53;;;;;;;13.30;11.90;;;19.00;99.90;;;;;;5027225;28;20294;-80
2022/06/26 04:50:20;;;;;;;13.60;12.27;;;19.10;99.90;;;;;;5029214;28;20229;-80
2022/06/26 04:52:49;;;;;;;12.90;11.70;;;19.10;99.90;;;;;;5034027;28;20696;-80
2022/06/26 04:55:17;;;;;;;13.65;12.35;;;19.10;99.90;;;;;;5048112;28;20274;-80
2022/06/26 04:57:47;;;;;;;13.32;12.02;;;19.20;99.90;;;;;;5044781;28;20304;-81
2022/06/26 05:00:15;;;;;;;13.18;11.77;;;19.20;99.90;;;;;;5048592;28;20238;-81
2022/06/26 05:02:54;;;;;;;13.52;12.18;;;19.30;99.90;;;;;;5036673;28;20978;-80
2022/06/26 05:05:56;;;;;;;12.27;11.10;;;19.40;99.90;;;;;;5025248;28;20768;-80
2022/06/26 05:08:45;;;;;;;13.60;12.30;;;19.40;99.90;;;;;;5036091;28;20266;-80
2022/06/26 05:11:12;;;;;;;12.23;11.13;;;19.50;99.90;;;;;;5052695;28;20266;-80
2022/06/26 05:13:40;;;;;;;12.25;11.10;;;19.50;99.90;;;;;;5049170;28;20657;-81
2022/06/26 05:16:25;;;;;;;12.02;10.93;;;19.60;99.90;;;;;;5041676;28;20684;-81
2022/06/26 05:18:53;;;;;;;11.82;10.63;;;19.60;99.90;;;;;;5037408;28;20330;-81
2022/06/26 05:21:20;;;;;;;12.00;10.63;;;19.70;99.90;;;;;;5024924;28;20607;-82
2022/06/26 05:23:47;;;;;;;11.40;10.30;;;19.70;99.90;;;;;;5051281;28;20226;-82
2022/06/26 05:26:14;;;;;;;11.93;10.85;;;19.70;99.90;;;;;;5024705;28;20232;-82
2022/06/26 05:28:41;;;;;;;11.23;10.23;;;19.70;99.90;;;;;;5046514;28;20224;-82
2022/06/26 05:31:08;;;;;;;11.10;9.98;;;19.80;99.90;;;;;;5026874;28;20332;-82
2022/06/26 05:33:40;;;;;;;11.07;9.93;;;19.80;99.90;;;;;;5036050;28;20235;-82
2022/06/26 05:36:11;;;;;;;11.05;10.05;;;19.90;99.90;;;;;;5028474;28;20640;-82
2022/06/26 05:38:39;;;;;;;11.07;9.98;;;19.90;99.90;;;;;;5046589;28;20307;-82
2022/06/26 05:41:07;;;;;;;10.98;9.88;;;19.90;99.90;;;;;;5031561;28;20693;-81
2022/06/26 05:43:36;;;;;;;10.70;9.77;;;19.90;99.90;;;;;;5028113;28;20297;-81
2022/06/26 05:46:03;;;;;;;10.07;9.18;;;20.00;99.90;;;;;;5021983;28;20216;-81
2022/06/26 05:48:49;;;;;;;9.32;8.43;;;20.10;99.90;;;;;;5052247;28;20227;-80
2022/06/26 05:51:39;;;;;;;10.15;9.02;;;20.10;99.90;;;;;;5031469;28;20236;-81
2022/06/26 05:54:45;;;;;;;8.98;8.13;;;20.10;99.90;;;;;;5028528;28;20631;-82
2022/06/26 05:57:19;;;;;;;9.52;8.27;;;20.30;99.90;;;;;;5029066;28;20291;-81
2022/06/26 06:00:06;;;;;;;8.65;7.95;;;20.30;99.90;;;;;;5047399;28;20900;-82
2022/06/26 06:02:45;;;;;;;9.13;8.20;;;20.40;99.90;;;;;;5051606;28;20223;-82
2022/06/26 06:05:14;;;;;;;9.38;8.57;;;20.50;99.90;;;;;;5034450;28;20305;-82
2022/06/26 06:07:42;;;;;;;8.55;7.85;;;20.50;99.90;;;;;;5032337;28;20235;-82
2022/06/26 06:10:10;;;;;;;8.45;7.75;;;20.70;99.90;;;;;;5018073;28;20287;-81
2022/06/26 06:12:38;;;;;;;9.18;8.38;;;20.80;99.90;;;;;;5025316;28;20220;-80
2022/06/26 06:15:07;;;;;;;8.30;7.43;;;21.10;99.90;;;;;;5030848;28;20220;-83
2022/06/26 06:17:36;;;;;;;9.05;7.63;;;21.30;99.90;;;;;;5029567;28;20224;-81
2022/06/26 06:20:04;;;;;;;8.43;7.63;;;21.60;99.90;;;;;;5034040;28;20228;-81
2022/06/26 06:22:36;;;;;;;7.07;6.38;;;21.80;99.90;;;;;;5038641;28;20740;-81
2022/06/26 06:25:05;;;;;;;7.05;6.45;;;22.10;99.90;;;;;;5049707;28;20311;-81
2022/06/26 06:27:32;;;;;;;7.13;6.05;;;22.40;99.90;;;;;;5032578;28;20235;-80
2022/06/26 06:30:07;;;;;;;7.75;5.68;;;22.60;99.90;;;;;;5031920;28;20240;-83
2022/06/26 06:32:34;;;;;;;6.28;5.75;;;22.80;99.90;;;;;;5047603;28;20220;-82
2022/06/26 06:35:03;;;;;;;6.50;5.70;;;23.00;99.90;;;;;;5027365;28;20781;-82
2022/06/26 06:37:34;;;;;;;6.15;5.55;;;23.20;99.90;;;;;;5025525;28;20228;-80
2022/06/26 06:40:04;;;;;;;5.93;5.43;;;23.30;99.90;;;;;;5047938;28;20864;-81
2022/06/26 06:42:36;;;;;;;6.70;5.40;;;23.50;99.90;;;;;;5047858;28;20224;-82
2022/06/26 06:45:12;;;;;;;6.30;5.70;;;23.60;99.90;;;;;;5028677;28;20235;-82
2022/06/26 06:47:51;;;;;;;5.93;5.43;;;23.70;99.90;;;;;;5031905;28;20256;-82
2022/06/26 06:50:50;;;;;;;6.18;5.57;;;23.80;99.90;;;;;;5049642;28;20232;-82
2022/06/26 06:53:19;;;;;;;6.18;5.57;;;23.80;99.70;;;;;;5037950;28;20219;-82
2022/06/26 06:55:47;;;;;;;6.75;5.50;;;23.80;99.60;;;;;;5037476;28;20228;-82
2022/06/26 06:58:14;;;;;;;6.63;5.70;;;23.70;99.40;;;;;;5026440;28;20229;-82
2022/06/26 07:00:41;;;;;;;5.35;4.88;;;23.70;99.80;;;;;;5030636;28;20290;-82
2022/06/26 07:03:13;;;;;;;6.28;5.25;;;23.90;99.90;;;;;;5032959;28;20227;-82
2022/06/26 07:05:40;;;;;;;6.38;5.13;;;24.20;99.80;;;;;;5048745;28;20716;-82
2022/06/26 07:08:07;;;;;;;6.15;5.28;;;24.60;99.30;;;;;;5051198;28;20224;-83
2022/06/26 07:10:34;;;;;;;6.18;4.72;;;25.10;98.20;;;;;;5047351;28;20598;-81
2022/06/26 07:13:02;;;;;;;5.05;4.20;;;25.60;97.90;;;;;;5033538;28;20222;-81
2022/06/26 07:15:29;;;;;;;5.20;4.70;;;26.10;97.20;;;;;;5052645;28;20246;-81
2022/06/26 07:17:56;;;;;;;4.47;3.83;;;26.50;96.70;;;;;;5054588;28;20239;-81
2022/06/26 07:20:24;;;;;;;5.25;3.85;;;27.10;96.10;;;;;;5031918;28;21000;-81
2022/06/26 07:22:54;;;;;;;4.38;4.07;;;27.60;95.30;;;;;;5036602;28;20220;-81
2022/06/26 07:25:28;;;;;;;4.57;3.75;;;28.00;93.80;;;;;;5044137;28;20238;-82
2022/06/26 07:28:01;;;;;;;4.70;3.67;;;28.40;93.30;;;;;;5035508;28;21981;-81
2022/06/26 07:30:31;;;;;;;3.42;3.13;;;28.80;92.70;;;;;;5028974;28;20240;-81
2022/06/26 07:33:04;;;;;;;3.50;3.20;;;29.30;91.80;;;;;;5049283;28;20236;-81
2022/06/26 07:35:31;;;;;;;3.50;3.13;;;29.70;91.40;;;;;;5029030;28;20233;-81
2022/06/26 07:37:58;;;;;;;3.50;3.13;;;30.20;90.10;;;;;;5037302;28;20565;-81
2022/06/26 07:40:26;;;;;;;3.35;2.85;;;30.70;88.30;;;;;;5046424;28;20240;-81
2022/06/26 07:42:53;;;;;;;3.97;3.03;;;31.20;86.30;;;;;;5044573;28;20242;-83
2022/06/26 07:45:22;;;;;;;3.85;2.88;;;31.50;81.10;;;;;;5033393;28;20242;-81
2022/06/26 07:47:56;;;;;;;4.65;2.75;;;31.70;79.30;;;;;;5036179;28;20219;-80
2022/06/26 07:50:23;;;;;;;3.38;2.92;;;31.90;80.20;;;;;;5034760;28;20220;-80
2022/06/26 07:52:49;;;;;;;3.50;3.00;;;32.10;77.80;;;;;;5057578;28;20220;-82
2022/06/26 07:55:16;;;;;;;3.45;3.15;;;32.20;76.60;;;;;;5050320;28;20223;-81
2022/06/26 07:57:43;;;;;;;3.13;2.83;;;32.20;76.10;;;;;;5063266;28;20701;-83
2022/06/26 08:00:10;;;;;;;4.30;3.08;;;32.40;76.00;;;;;;5036858;28;20235;-84
2022/06/26 08:02:41;;;;;;;3.50;3.20;;;32.50;75.30;;;;;;5050208;28;20315;-83
2022/06/26 08:05:09;;;;;;;3.95;3.45;;;32.80;75.40;;;;;;5045674;28;20251;-85
2022/06/26 08:07:35;;;;;;;5.22;3.20;;;33.20;74.80;;;;;;5048639;28;20224;-83
2022/06/26 08:10:02;;;;;;;3.88;3.47;;;33.50;74.00;;;;;;5047768;28;20228;-82
2022/06/26 08:12:29;;;;;;;4.65;3.25;;;33.90;72.00;;;;;;5043353;28;20225;-84
2022/06/26 08:14:56;;;;;;;3.92;3.28;;;34.20;70.70;;;;;;5056490;28;20219;-84
2022/06/26 08:17:22;;;;;;;3.50;3.20;;;34.50;69.90;;;;;;5043960;28;20606;-87
2022/06/26 08:19:50;;;;;;;4.60;3.65;;;34.70;69.40;;;;;;5051023;28;20238;-86
2022/06/26 08:22:17;;;;;;;3.50;3.20;;;34.90;65.10;;;;;;5033426;28;20251;-86
2022/06/26 08:24:44;;;;;;;3.60;3.30;;;35.00;63.20;;;;;;5057845;28;20573;-85
2022/06/26 08:27:10;;;;;;;3.92;3.38;;;35.10;63.80;;;;;;5032035;28;20238;-87
2022/06/26 08:29:38;;;;;;;3.53;3.22;;;35.10;63.30;;;;;;5051276;28;20240;-80
2022/06/26 08:32:06;;;;;;;3.80;3.17;;;35.10;63.20;;;;;;5047987;28;20739;-81
2022/06/26 08:34:33;;;;;;;5.47;2.92;;;35.20;62.90;;;;;;5043405;28;20539;-81
2022/06/26 08:37:01;;;;;;;5.05;3.25;;;35.40;63.20;;;;;;5049039;28;20230;-82
2022/06/26 08:39:28;;;;;;;3.13;2.83;;;35.70;60.90;;;;;;5055973;28;20224;-81
2022/06/26 08:41:56;;;;;;;4.55;3.20;;;35.90;60.30;;;;;;5052848;28;20326;-82
2022/06/26 08:44:24;;;;;;;3.13;2.83;;;36.10;59.70;;;;;;5049977;28;20227;-81
2022/06/26 08:46:54;;;;;;;3.22;2.90;;;36.30;58.50;;;;;;5054008;28;20315;-81
2022/06/26 08:49:23;;;;;;;3.25;3.03;;;36.60;58.60;;;;;;5030560;28;20220;-81
2022/06/26 08:51:51;;;;;;;3.25;2.95;;;36.80;58.40;;;;;;5040298;28;20224;-80
2022/06/26 08:54:20;;;;;;;5.20;3.13;;;36.90;57.20;;;;;;5052379;28;20226;-81
2022/06/26 08:56:49;;;;;;;4.07;3.17;;;37.10;56.50;;;;;;5056157;28;20228;-80
2022/06/26 08:59:18;;;;;;;3.30;3.00;;;37.30;56.00;;;;;;5057119;28;20258;-81
2022/06/26 09:01:45;;;;;;;3.50;3.20;;;37.40;56.10;;;;;;5049240;28;20251;-80
2022/06/26 09:04:13;;;;;;;3.42;3.15;;;37.50;55.50;;;;;;5031506;28;20228;-80
2022/06/26 09:06:41;;;;;;;3.03;2.72;;;37.60;54.90;;;;;;5058459;28;20250;-81
2022/06/26 09:09:14;;;;;;;1.90;1.80;;;37.60;54.00;;;;;;5046575;28;20238;-81
2022/06/26 09:11:43;;;;;;;2.53;1.80;;;37.60;51.90;;;;;;5042323;28;20239;-80
2022/06/26 09:14:11;;;;;;;1.77;1.60;;;37.50;50.90;;;;;;5053966;28;20323;-81
2022/06/26 09:16:39;;;;;;;1.92;1.60;;;37.40;51.00;;;;;;5054463;28;20239;-81
2022/06/26 09:19:08;;;;;;;1.60;1.50;;;37.20;50.30;;;;;;5051648;28;20238;-81
2022/06/26 09:21:35;;;;;;;2.42;1.73;;;37.20;50.20;;;;;;5030867;28;20805;-80
2022/06/26 09:24:01;;;;;;;2.88;1.88;;;37.00;50.40;;;;;;5049577;28;20985;-80
2022/06/26 09:26:28;;;;;;;1.80;1.70;;;36.90;50.00;;;;;;5046648;28;20367;-80
2022/06/26 09:28:56;;;;;;;2.20;1.98;;;36.80;50.70;;;;;;5052640;28;20626;-80
2022/06/26 09:31:23;;;;;;;2.40;2.08;;;36.70;50.50;;;;;;5022569;28;20343;-81
2022/06/26 09:33:50;;;;;;;2.78;1.80;;;36.60;50.60;;;;;;5048427;28;20229;-81
2022/06/26 09:36:19;;;;;;;1.70;1.58;;;36.60;50.30;;;;;;5028321;28;20224;-80
2022/06/26 09:38:49;;;;;;;1.73;1.60;;;36.50;50.70;;;;;;5045974;28;20263;-81
2022/06/26 09:41:16;;;;;;;2.38;1.70;;;36.40;49.50;;;;;;5025260;28;20225;-81
2022/06/26 09:43:43;;;;;;;3.20;1.70;;;36.20;49.10;;;;;;5026532;28;20329;-81
2022/06/26 09:46:14;;;;;;;1.75;1.65;;;36.00;50.20;;;;;;5028762;28;20248;-81
2022/06/26 09:48:42;;;;;;;5.05;1.70;;;35.80;49.90;;;;;;5043443;28;20221;-81
2022/06/26 09:51:10;;;;;;;1.83;1.40;;;35.70;50.50;;;;;;5028044;28;20230;-81
2022/06/26 09:53:37;;;;;;;1.92;1.60;;;35.70;50.50;;;;;;5048536;28;20723;-80
2022/06/26 09:56:06;;;;;;;2.78;1.90;;;35.70;50.30;;;;;;5046348;28;20235;-80
2022/06/26 09:58:33;;;;;;;1.77;1.67;;;35.80;49.90;;;;;;5044502;28;20220;-81
2022/06/26 10:06:33;;;;;;;2.58;1.85;;;36.30;49.00;;;;;;5044797;28;20336;-81
2022/06/26 10:09:02;;;;;;;2.35;2.00;;;36.50;49.50;;;;;;5038069;28;20220;-80
2022/06/26 10:11:31;;;;;;;2.00;1.80;;;36.70;49.30;;;;;;5048653;28;20235;-81
2022/06/26 10:14:01;;;;;;;2.22;1.98;;;36.80;48.60;;;;;;5044482;28;20711;-80
2022/06/26 10:16:57;;;;;;;1.98;1.75;;;36.90;48.60;;;;;;5046223;28;20220;-81
2022/06/26 10:19:31;;;;;;;1.90;1.70;;;37.10;48.00;;;;;;5045348;28;20235;-81
2022/06/26 10:21:58;;;;;;;2.00;1.80;;;37.20;47.30;;;;;;5045484;28;20306;-82
2022/06/26 10:24:25;;;;;;;1.85;1.75;;;37.40;48.30;;;;;;5024950;28;20239;-81
2022/06/26 10:26:54;;;;;;;2.10;2.00;;;37.50;48.40;;;;;;5030988;28;20569;-82
2022/06/26 10:29:31;;;;;;;2.28;2.10;;;37.60;47.90;;;;;;5047646;28;20227;-82
2022/06/26 10:31:58;;;;;;;2.50;2.30;;;37.80;48.50;;;;;;5042085;28;20311;-81
2022/06/26 10:34:26;;;;;;;2.28;2.08;;;38.10;48.40;;;;;;5041210;28;20223;-82
2022/06/26 10:37:01;;;;;;;2.17;2.00;;;38.20;47.30;;;;;;5048483;28;20240;-82
2022/06/26 10:39:42;;;;;;;1.92;1.70;;;38.10;47.10;;;;;;5050516;28;20643;-82
2022/06/26 10:45:01;;;;;;;3.22;2.78;;;37.80;47.10;;;;;;5045723;28;20645;-81
2022/06/26 10:47:40;;;;;;;2.70;2.50;;;37.60;47.60;;;;;;5058551;28;20230;-82
2022/06/26 10:50:27;;;;;;;2.95;2.28;;;37.50;47.70;;;;;;5047174;28;20233;-82
2022/06/26 10:52:54;;;;;;;3.25;2.85;;;37.40;47.80;;;;;;5034296;28;20333;-82
2022/06/26 10:55:21;;;;;;;2.45;2.22;;;37.40;47.90;;;;;;5030830;28;20231;-82
2022/06/26 10:57:49;;;;;;;2.53;2.30;;;37.40;47.90;;;;;;5046746;28;20812;-82
2022/06/26 11:00:16;;;;;;;2.92;2.17;;;37.50;47.80;;;;;;5056351;28;20239;-81
2022/06/26 11:02:45;;;;;;;2.65;2.45;;;37.50;47.60;;;;;;5050049;28;20760;-81
2022/06/26 11:05:14;;;;;;;4.30;2.33;;;37.40;47.30;;;;;;5042991;28;20220;-82
2022/06/26 11:07:43;;;;;;;2.45;2.10;;;37.50;47.00;;;;;;5024888;28;20678;-82
2022/06/26 11:10:12;;;;;;;1.90;1.80;;;37.50;46.90;;;;;;5040396;28;20233;-82
2022/06/26 11:12:43;;;;;;;2.80;2.17;;;37.60;46.20;;;;;;5056926;28;20228;-81
2022/06/26 11:15:25;;;;;;;4.97;2.17;;;37.60;46.50;;;;;;5060293;28;20222;-82
2022/06/26 11:17:53;;;;;;;2.10;1.90;;;37.60;46.60;;;;;;5046267;28;20231;-82
2022/06/26 11:23:15;;;;;;;3.28;2.00;;;37.80;45.90;;;;;;5043884;28;20244;-81
2022/06/26 11:25:42;;;;;;;2.28;2.08;;;37.80;45.60;;;;;;5047117;28;20223;-82
2022/06/26 11:28:10;;;;;;;2.38;2.10;;;37.70;46.10;;;;;;5050846;28;20231;-81
2022/06/26 11:30:37;;;;;;;2.58;2.35;;;37.70;46.40;;;;;;5047365;28;20248;-80
2022/06/26 11:33:04;;;;;;;2.72;2.45;;;37.60;46.70;;;;;;5042544;28;20234;-84
2022/06/26 11:35:34;;;;;;;3.90;2.53;;;37.60;46.90;;;;;;5033125;28;20231;-84
2022/06/26 11:38:10;;;;;;;3.15;2.22;;;37.50;46.50;;;;;;5051399;28;20215;-83
2022/06/26 11:40:37;;;;;;;6.05;3.13;;;37.40;46.80;;;;;;5029607;28;20231;-83
2022/06/26 11:43:03;;;;;;;2.90;2.63;;;37.30;47.10;;;;;;5041529;28;20220;-84
2022/06/26 11:45:32;;;;;;;2.85;2.65;;;37.10;47.10;;;;;;5027369;28;20629;-84
2022/06/26 11:48:00;;;;;;;4.03;2.88;;;36.80;47.40;;;;;;5045805;28;20243;-84
2022/06/26 11:50:29;;;;;;;4.30;3.20;;;36.60;48.00;;;;;;5026277;28;20685;-84
2022/06/26 11:52:59;;;;;;;4.75;3.40;;;36.30;48.60;;;;;;5041303;28;20755;-84
2022/06/26 11:55:26;;;;;;;3.80;3.25;;;36.00;49.00;;;;;;5052968;28;20223;-84
2022/06/26 11:57:54;;;;;;;4.05;3.20;;;35.70;49.30;;;;;;5048239;28;20696;-84
2022/06/26 12:00:22;;;;;;;4.75;3.50;;;35.50;50.00;;;;;;5029508;28;20322;-85
2022/06/26 12:02:49;;;;;;;4.75;3.67;;;35.20;50.30;;;;;;5030581;28;20915;-85
2022/06/26 12:05:21;;;;;;;4.05;3.25;;;34.90;50.50;;;;;;5029566;28;20228;-85
2022/06/26 12:07:49;;;;;;;4.50;3.30;;;34.70;51.10;;;;;;5032530;28;20722;-85
2022/06/26 12:10:31;;;;;;;4.20;3.80;;;34.50;51.40;;;;;;5025260;28;20265;-83
2022/06/26 12:12:58;;;;;;;5.63;3.38;;;34.50;51.30;;;;;;5037955;28;20225;-83
2022/06/26 12:15:25;;;;;;;3.28;2.97;;;34.50;51.30;;;;;;5030541;28;20223;-83
2022/06/26 12:17:54;;;;;;;3.42;3.13;;;34.50;51.50;;;;;;5043771;28;20318;-83
2022/06/26 12:20:20;;;;;;;3.63;3.08;;;34.60;50.90;;;;;;5043107;28;20232;-83
2022/06/26 12:22:51;;;;;;;3.72;3.20;;;34.60;51.20;;;;;;5028742;28;20231;-83
2022/06/26 12:25:28;;;;;;;5.68;3.90;;;34.80;51.70;;;;;;5053628;28;20234;-83
2022/06/26 12:27:55;;;;;;;5.93;3.50;;;35.00;51.60;;;;;;5060702;28;20219;-83
2022/06/26 12:30:24;;;;;;;3.80;3.50;;;35.20;51.50;;;;;;5042165;28;20232;-83
2022/06/26 12:32:50;;;;;;;3.22;2.92;;;35.40;51.10;;;;;;5044102;28;20238;-84
2022/06/26 12:35:17;;;;;;;3.45;3.15;;;35.50;50.90;;;;;;5045366;28;20224;-83
2022/06/26 12:37:44;;;;;;;4.57;3.70;;;35.50;50.70;;;;;;5046741;28;20227;-83
2022/06/26 12:40:12;;;;;;;4.35;3.22;;;35.30;50.40;;;;;;5025703;28;20251;-83
2022/06/26 12:42:40;;;;;;;3.35;3.08;;;35.10;50.70;;;;;;5025771;28;20224;-83
2022/06/26 12:45:08;;;;;;;3.78;2.95;;;34.90;50.90;;;;;;5048805;28;20216;-83
2022/06/26 12:47:35;;;;;;;5.80;3.53;;;34.60;51.30;;;;;;5045771;28;20246;-82
2022/06/26 12:50:01;;;;;;;6.13;3.60;;;34.30;52.10;;;;;;5044734;28;20409;-83
2022/06/26 12:52:28;;;;;;;4.00;3.60;;;34.00;53.00;;;;;;5034066;28;20234;-84
2022/06/26 12:54:55;;;;;;;3.78;3.47;;;33.70;53.50;;;;;;5029094;28;20966;-84
2022/06/26 12:57:22;;;;;;;4.95;3.67;;;33.40;54.10;;;;;;5023032;28;20307;-85
2022/06/26 12:59:50;;;;;;;5.75;3.60;;;33.10;54.60;;;;;;5052814;28;20232;-84
2022/06/26 13:02:16;;;;;;;5.13;3.95;;;32.80;55.00;;;;;;5046923;28;20402;-84
2022/06/26 13:04:43;;;;;;;3.85;3.50;;;32.60;55.40;;;;;;5042364;28;20220;-84
2022/06/26 13:07:10;;;;;;;4.97;4.47;;;32.50;56.10;;;;;;5042831;28;20734;-83